createdAt,value
2019-02-07T00:00:01.033Z,75.32
2019-02-07T00:01:01.007Z,75.60
2019-02-07T00:02:00.987Z,75.89
2019-02-07T00:03:00.965Z,75.79
2019-02-07T00:04:00.944Z,76.07
2019-02-07T00:05:00.924Z,75.98
2019-02-07T00:06:00.904Z,76.26
2019-02-07T00:07:00.886Z,76.26
2019-02-07T00:08:00.860Z,76.26
2019-02-07T00:09:00.839Z,76.26
2019-02-07T00:10:00.821Z,76.26
2019-02-07T00:11:00.796Z,76.07
2019-02-07T00:12:00.809Z,75.79
2019-02-07T00:13:00.755Z,75.98
2019-02-07T00:14:00.736Z,75.79
2019-02-07T00:15:00.717Z,75.98
2019-02-07T00:16:00.691Z,75.79
2019-02-07T00:17:00.667Z,75.79
2019-02-07T00:18:00.658Z,75.89
2019-02-07T00:19:00.627Z,75.89
2019-02-07T00:20:00.607Z,75.89
2019-02-07T00:21:00.585Z,75.79
2019-02-07T00:22:00.564Z,75.89
2019-02-07T00:23:00.544Z,75.89
2019-02-07T00:24:00.522Z,75.79
2019-02-07T00:25:00.499Z,75.89
2019-02-07T00:26:00.475Z,75.89
2019-02-07T00:27:00.468Z,75.89
2019-02-07T00:28:00.436Z,75.98
2019-02-07T00:29:00.413Z,75.89
2019-02-07T00:30:00.396Z,75.89
2019-02-07T00:31:00.371Z,75.89
2019-02-07T00:32:00.350Z,75.89
2019-02-07T00:33:00.335Z,75.79
2019-02-07T00:34:00.312Z,75.89
2019-02-07T00:35:00.345Z,75.89
2019-02-07T00:36:00.267Z,75.79
2019-02-07T00:37:00.256Z,75.89
2019-02-07T00:38:00.227Z,76.36
2019-02-07T00:39:00.208Z,76.45
2019-02-07T00:40:00.319Z,76.36
2019-02-07T00:41:00.169Z,76.45
2019-02-07T00:42:00.139Z,76.26
2019-02-07T00:43:00.122Z,76.26
2019-02-07T00:44:00.096Z,76.74
2019-02-07T00:45:00.099Z,76.45
2019-02-07T00:46:00.061Z,76.45
2019-02-07T00:47:00.033Z,76.74
2019-02-07T00:48:00.013Z,76.74
2019-02-07T00:48:59.998Z,76.83
2019-02-07T00:49:59.966Z,76.45
2019-02-07T00:50:59.948Z,76.93
2019-02-07T00:51:59.922Z,76.83
2019-02-07T00:52:59.905Z,76.93
2019-02-07T00:53:59.884Z,76.93
2019-02-07T00:54:59.861Z,76.93
2019-02-07T00:55:59.835Z,76.74
2019-02-07T00:56:59.821Z,76.74
2019-02-07T00:57:59.820Z,76.74
2019-02-07T00:58:59.773Z,76.55
2019-02-07T00:59:59.758Z,76.93
2019-02-07T01:00:59.733Z,76.64
2019-02-07T01:01:59.714Z,77.50
2019-02-07T01:02:59.694Z,77.59
2019-02-07T01:03:59.667Z,77.31
2019-02-07T01:04:59.655Z,77.21
2019-02-07T01:05:59.629Z,77.21
2019-02-07T01:06:59.614Z,77.40
2019-02-07T01:07:59.586Z,76.98
2019-02-07T01:08:59.565Z,77.45
2019-02-07T01:09:59.543Z,77.36
2019-02-07T01:10:59.522Z,77.36
2019-02-07T01:11:59.506Z,77.87
2019-02-07T01:12:59.491Z,77.69
2019-02-07T01:13:59.468Z,77.83
2019-02-07T01:15:02.246Z,77.78
2019-02-07T01:15:59.414Z,77.69
2019-02-07T01:16:59.394Z,77.74
2019-02-07T01:17:59.369Z,78.02
2019-02-07T01:18:59.360Z,78.21
2019-02-07T01:19:59.328Z,77.78
2019-02-07T01:20:59.309Z,78.02
2019-02-07T01:21:59.287Z,78.21
2019-02-07T01:22:59.263Z,78.25
2019-02-07T01:23:59.244Z,78.12
2019-02-07T01:24:59.221Z,77.93
2019-02-07T01:25:59.202Z,77.69
2019-02-07T01:26:59.179Z,77.97
2019-02-07T01:27:59.163Z,78.25
2019-02-07T01:28:59.136Z,78.25
2019-02-07T01:30:00.625Z,78.16
2019-02-07T01:30:59.093Z,78.53
2019-02-07T01:31:59.070Z,78.34
2019-02-07T01:32:59.057Z,78.16
2019-02-07T01:33:59.031Z,78.16
2019-02-07T01:34:59.007Z,78.16
2019-02-07T01:35:58.990Z,78.25
2019-02-07T01:36:58.963Z,78.34
2019-02-07T01:37:58.958Z,77.97
2019-02-07T01:38:58.923Z,78.06
2019-02-07T01:39:58.902Z,78.16
2019-02-07T01:40:58.878Z,78.06
2019-02-07T01:41:58.858Z,78.34
2019-02-07T01:42:58.840Z,78.06
2019-02-07T01:43:58.813Z,78.40
2019-02-07T01:44:58.797Z,78.21
2019-02-07T01:45:58.776Z,78.02
2019-02-07T01:46:58.762Z,78.12
2019-02-07T01:47:58.731Z,78.21
2019-02-07T01:48:58.708Z,78.21
2019-02-07T01:49:58.692Z,78.02
2019-02-07T01:50:58.666Z,78.78
2019-02-07T01:51:58.647Z,78.97
2019-02-07T01:52:58.625Z,78.87
2019-02-07T01:53:58.633Z,78.68
2019-02-07T01:54:58.591Z,78.78
2019-02-07T01:55:58.558Z,78.68
2019-02-07T01:56:58.536Z,78.68
2019-02-07T01:57:58.520Z,78.78
2019-02-07T01:58:58.506Z,78.68
2019-02-07T01:59:58.487Z,78.68
2019-02-07T02:00:58.549Z,78.50
2019-02-07T02:01:58.433Z,78.59
2019-02-07T02:02:58.409Z,78.68
2019-02-07T02:03:58.394Z,78.59
2019-02-07T02:04:58.365Z,78.68
2019-02-07T02:05:58.357Z,78.68
2019-02-07T02:06:58.325Z,78.87
2019-02-07T02:07:58.305Z,78.87
2019-02-07T02:08:58.285Z,78.87
2019-02-07T02:09:58.271Z,78.59
2019-02-07T02:10:58.235Z,78.97
2019-02-07T02:11:58.216Z,78.59
2019-02-07T02:12:58.201Z,78.97
2019-02-07T02:13:58.175Z,78.50
2019-02-07T02:14:58.161Z,78.87
2019-02-07T02:15:58.137Z,78.50
2019-02-07T02:16:58.111Z,78.97
2019-02-07T02:17:58.090Z,78.91
2019-02-07T02:18:58.063Z,78.97
2019-02-07T02:19:58.056Z,78.97
2019-02-07T02:20:58.025Z,78.97
2019-02-07T02:21:58.003Z,78.81
2019-02-07T02:22:57.979Z,78.81
2019-02-07T02:23:57.959Z,78.91
2019-02-07T02:24:57.939Z,78.87
2019-02-07T02:25:57.919Z,78.91
2019-02-07T02:26:57.898Z,78.72
2019-02-07T02:27:57.875Z,78.72
2019-02-07T02:28:57.859Z,79.00
2019-02-07T02:29:57.835Z,79.00
2019-02-07T02:30:57.814Z,78.81
2019-02-07T02:31:57.789Z,79.10
2019-02-07T02:32:57.781Z,78.91
2019-02-07T02:33:57.754Z,79.19
2019-02-07T02:34:57.731Z,78.72
2019-02-07T02:35:57.705Z,78.81
2019-02-07T02:36:57.700Z,79.38
2019-02-07T02:37:57.664Z,78.63
2019-02-07T02:38:57.645Z,78.72
2019-02-07T02:39:57.618Z,79.29
2019-02-07T02:40:57.602Z,79.19
2019-02-07T02:41:57.580Z,79.29
2019-02-07T02:42:57.557Z,79.29
2019-02-07T02:43:57.535Z,78.63
2019-02-07T02:44:57.516Z,78.72
2019-02-07T02:45:57.502Z,78.81
2019-02-07T02:46:57.470Z,78.53
2019-02-07T02:47:57.453Z,78.81
2019-02-07T02:48:57.434Z,78.72
2019-02-07T02:49:57.408Z,78.53
2019-02-07T02:50:57.388Z,78.81
2019-02-07T02:51:57.364Z,78.63
2019-02-07T02:52:57.354Z,78.81
2019-02-07T02:53:57.324Z,78.53
2019-02-07T02:54:57.305Z,78.81
2019-02-07T02:55:57.291Z,78.72
2019-02-07T02:56:57.260Z,78.81
2019-02-07T02:57:57.241Z,78.81
2019-02-07T02:58:57.219Z,78.72
2019-02-07T02:59:57.197Z,79.10
2019-02-07T03:00:57.176Z,78.81
2019-02-07T03:01:57.157Z,78.81
2019-02-07T03:02:57.133Z,78.72
2019-02-07T03:03:57.115Z,78.76
2019-02-07T03:04:57.098Z,78.86
2019-02-07T03:05:57.078Z,79.33
2019-02-07T03:06:57.059Z,79.24
2019-02-07T03:07:57.037Z,78.86
2019-02-07T03:08:57.011Z,78.86
2019-02-07T03:09:57.003Z,78.58
2019-02-07T03:10:56.967Z,78.95
2019-02-07T03:11:56.954Z,78.95
2019-02-07T03:12:56.928Z,79.05
2019-02-07T03:13:56.913Z,78.48
2019-02-07T03:14:56.890Z,78.76
2019-02-07T03:15:56.861Z,78.86
2019-02-07T03:16:56.853Z,78.58
2019-02-07T03:17:56.826Z,78.67
2019-02-07T03:18:56.808Z,78.67
2019-02-07T03:19:56.790Z,78.48
2019-02-07T03:20:56.759Z,78.67
2019-02-07T03:21:56.738Z,78.67
2019-02-07T03:22:56.720Z,78.67
2019-02-07T03:23:56.700Z,78.67
2019-02-07T03:24:56.679Z,78.67
2019-02-07T03:25:56.653Z,78.58
2019-02-07T03:26:56.636Z,78.67
2019-02-07T03:27:56.617Z,78.48
2019-02-07T03:28:56.599Z,78.76
2019-02-07T03:29:56.591Z,78.76
2019-02-07T03:30:56.566Z,78.67
2019-02-07T03:31:56.535Z,79.05
2019-02-07T03:32:56.766Z,78.95
2019-02-07T03:33:56.495Z,78.95
2019-02-07T03:34:56.484Z,78.76
2019-02-07T03:35:56.457Z,78.86
2019-02-07T03:36:56.444Z,78.76
2019-02-07T03:37:56.411Z,78.67
2019-02-07T03:38:56.385Z,78.76
2019-02-07T03:39:56.363Z,78.76
2019-02-07T03:40:56.359Z,78.95
2019-02-07T03:41:56.326Z,78.76
2019-02-07T03:42:56.304Z,78.86
2019-02-07T03:43:56.287Z,78.86
2019-02-07T03:44:56.261Z,78.67
2019-02-07T03:46:02.663Z,78.67
2019-02-07T03:46:56.222Z,78.67
2019-02-07T03:47:56.200Z,78.76
2019-02-07T03:48:56.179Z,78.58
2019-02-07T03:49:56.158Z,78.95
2019-02-07T03:50:56.149Z,79.24
2019-02-07T03:51:56.114Z,78.95
2019-02-07T03:52:56.098Z,79.14
2019-02-07T03:53:56.078Z,78.67
2019-02-07T03:54:56.053Z,78.67
2019-02-07T03:55:56.039Z,78.86
2019-02-07T03:56:56.013Z,78.76
2019-02-07T03:57:55.998Z,78.95
2019-02-07T03:58:55.967Z,78.39
2019-02-07T03:59:55.955Z,78.67
2019-02-07T04:00:55.931Z,79.05
2019-02-07T04:01:55.911Z,78.95
2019-02-07T04:02:55.899Z,79.05
2019-02-07T04:03:55.870Z,78.95
2019-02-07T04:04:55.851Z,79.05
2019-02-07T04:05:55.827Z,79.05
2019-02-07T04:06:55.807Z,79.05
2019-02-07T04:07:55.789Z,78.95
2019-02-07T04:08:55.767Z,78.58
2019-02-07T04:09:55.756Z,78.58
2019-02-07T04:10:55.725Z,78.95
2019-02-07T04:11:55.705Z,78.95
2019-02-07T04:12:55.684Z,79.14
2019-02-07T04:13:55.680Z,78.39
2019-02-07T04:14:55.652Z,79.14
2019-02-07T04:15:55.622Z,78.58
2019-02-07T04:16:55.601Z,78.67
2019-02-07T04:17:55.586Z,79.09
2019-02-07T04:18:55.564Z,78.42
2019-02-07T04:19:55.547Z,78.33
2019-02-07T04:20:55.517Z,77.76
2019-02-07T04:21:55.503Z,78.23
2019-02-07T04:22:55.481Z,77.58
2019-02-07T04:23:55.454Z,77.67
2019-02-07T04:24:55.447Z,77.67
2019-02-07T04:25:55.417Z,77.48
2019-02-07T04:26:55.396Z,77.58
2019-02-07T04:27:55.376Z,77.29
2019-02-07T04:28:55.366Z,77.48
2019-02-07T04:29:55.339Z,77.58
2019-02-07T04:30:55.316Z,77.10
2019-02-07T04:31:55.294Z,76.72
2019-02-07T04:32:55.273Z,77.01
2019-02-07T04:33:55.252Z,77.10
2019-02-07T04:34:55.247Z,76.44
2019-02-07T04:35:55.210Z,76.53
2019-02-07T04:36:55.195Z,76.57
2019-02-07T04:37:55.170Z,75.91
2019-02-07T04:38:55.156Z,76.06
2019-02-07T04:39:55.128Z,76.19
2019-02-07T04:40:55.112Z,76.10
2019-02-07T04:41:55.087Z,75.91
2019-02-07T04:42:55.074Z,75.43
2019-02-07T04:43:55.050Z,75.72
2019-02-07T04:44:55.021Z,75.40
2019-02-07T04:45:55.020Z,75.53
2019-02-07T04:46:54.980Z,75.91
2019-02-07T04:47:54.969Z,75.78
2019-02-07T04:48:54.969Z,75.62
2019-02-07T04:49:54.926Z,75.53
2019-02-07T04:50:54.925Z,75.62
2019-02-07T04:51:54.905Z,75.62
2019-02-07T04:52:54.864Z,75.34
2019-02-07T04:53:54.858Z,75.53
2019-02-07T04:54:54.854Z,75.53
2019-02-07T04:55:54.806Z,74.96
2019-02-07T04:56:54.788Z,75.15
2019-02-07T04:57:54.760Z,74.58
2019-02-07T04:58:54.760Z,74.87
2019-02-07T04:59:54.754Z,74.87
2019-02-07T05:00:54.698Z,74.77
2019-02-07T05:01:54.686Z,74.58
2019-02-07T05:02:54.660Z,74.11
2019-02-07T05:03:54.652Z,73.92
2019-02-07T05:04:54.618Z,74.11
2019-02-07T05:05:54.600Z,74.49
2019-02-07T05:06:54.579Z,74.11
2019-02-07T05:07:54.556Z,74.77
2019-02-07T05:08:54.536Z,74.49
2019-02-07T05:09:54.529Z,74.40
2019-02-07T05:10:54.495Z,74.49
2019-02-07T05:11:54.497Z,74.30
2019-02-07T05:12:54.523Z,74.21
2019-02-07T05:13:54.451Z,73.92
2019-02-07T05:14:54.420Z,73.92
2019-02-07T05:15:54.396Z,74.11
2019-02-07T05:16:54.377Z,73.92
2019-02-07T05:17:54.355Z,74.11
2019-02-07T05:18:54.335Z,74.11
2019-02-07T05:19:54.316Z,74.40
2019-02-07T05:20:54.307Z,74.49
2019-02-07T05:21:54.269Z,74.21
2019-02-07T05:22:54.254Z,74.02
2019-02-07T05:23:54.239Z,74.02
2019-02-07T05:24:54.218Z,73.83
2019-02-07T05:25:54.194Z,74.11
2019-02-07T05:26:54.198Z,74.02
2019-02-07T05:27:54.166Z,74.11
2019-02-07T05:28:54.152Z,73.92
2019-02-07T05:29:54.130Z,73.54
2019-02-07T05:30:54.106Z,73.45
2019-02-07T05:31:54.069Z,73.54
2019-02-07T05:32:54.060Z,73.83
2019-02-07T05:33:54.059Z,73.64
2019-02-07T05:34:54.016Z,74.11
2019-02-07T05:35:53.993Z,74.11
2019-02-07T05:36:53.979Z,73.92
2019-02-07T05:37:54.082Z,73.92
2019-02-07T05:38:53.934Z,73.92
2019-02-07T05:39:53.915Z,73.92
2019-02-07T05:40:53.893Z,73.64
2019-02-07T05:41:53.878Z,73.92
2019-02-07T05:42:53.855Z,73.92
2019-02-07T05:43:53.831Z,74.02
2019-02-07T05:44:53.809Z,73.92
2019-02-07T05:45:53.794Z,73.92
2019-02-07T05:46:53.769Z,73.92
2019-02-07T05:47:53.766Z,73.54
2019-02-07T05:48:53.734Z,73.83
2019-02-07T05:49:53.713Z,73.64
2019-02-07T05:50:53.693Z,73.92
2019-02-07T05:51:53.668Z,73.83
2019-02-07T05:52:53.653Z,73.64
2019-02-07T05:53:53.633Z,73.64
2019-02-07T05:54:53.615Z,73.73
2019-02-07T05:55:53.595Z,73.92
2019-02-07T05:56:53.578Z,74.02
2019-02-07T05:57:53.551Z,73.54
2019-02-07T05:58:53.528Z,73.54
2019-02-07T05:59:53.515Z,73.26
2019-02-07T06:00:53.494Z,73.35
2019-02-07T06:01:53.470Z,73.35
2019-02-07T06:02:53.456Z,73.45
2019-02-07T06:03:53.431Z,73.45
2019-02-07T06:04:53.423Z,73.26
2019-02-07T06:05:53.404Z,73.26
2019-02-07T06:06:53.375Z,73.45
2019-02-07T06:07:53.360Z,73.54
2019-02-07T06:08:53.356Z,72.88
2019-02-07T06:09:53.323Z,73.35
2019-02-07T06:10:53.294Z,73.64
2019-02-07T06:11:53.272Z,72.78
2019-02-07T06:12:53.256Z,72.88
2019-02-07T06:13:53.233Z,72.97
2019-02-07T06:14:53.210Z,72.88
2019-02-07T06:15:53.191Z,73.07
2019-02-07T06:17:02.328Z,72.69
2019-02-07T06:17:53.153Z,72.97
2019-02-07T06:18:53.131Z,72.97
2019-02-07T06:19:53.113Z,72.69
2019-02-07T06:20:53.092Z,72.78
2019-02-07T06:21:53.071Z,72.12
2019-02-07T06:22:53.049Z,72.31
2019-02-07T06:23:53.031Z,72.50
2019-02-07T06:24:53.012Z,72.22
2019-02-07T06:25:52.995Z,72.22
2019-02-07T06:26:52.979Z,72.12
2019-02-07T06:27:52.962Z,72.31
2019-02-07T06:28:52.931Z,72.12
2019-02-07T06:29:52.908Z,72.12
2019-02-07T06:30:52.891Z,72.03
2019-02-07T06:31:52.874Z,72.12
2019-02-07T06:32:52.857Z,72.03
2019-02-07T06:33:52.828Z,72.03
2019-02-07T06:34:52.812Z,72.03
2019-02-07T06:35:52.792Z,72.12
2019-02-07T06:36:52.779Z,72.12
2019-02-07T06:37:52.750Z,72.12
2019-02-07T06:38:52.743Z,72.31
2019-02-07T06:39:52.717Z,72.31
2019-02-07T06:40:52.690Z,72.22
2019-02-07T06:41:52.669Z,72.12
2019-02-07T06:42:52.655Z,72.50
2019-02-07T06:43:52.629Z,72.31
2019-02-07T06:44:52.611Z,72.22
2019-02-07T06:45:52.592Z,72.03
2019-02-07T06:46:52.569Z,71.93
2019-02-07T06:47:52.553Z,72.03
2019-02-07T06:48:52.525Z,71.84
2019-02-07T06:49:52.505Z,71.93
2019-02-07T06:50:52.484Z,71.93
2019-02-07T06:51:52.463Z,71.93
2019-02-07T06:52:52.451Z,71.84
2019-02-07T06:53:52.422Z,71.93
2019-02-07T06:54:52.406Z,71.84
2019-02-07T06:55:52.382Z,72.03
2019-02-07T06:56:52.366Z,71.93
2019-02-07T06:57:52.352Z,72.50
2019-02-07T06:58:55.067Z,72.50
2019-02-07T06:59:52.305Z,72.31
2019-02-07T07:00:52.281Z,72.03
2019-02-07T07:01:52.266Z,72.03
2019-02-07T07:02:52.250Z,72.03
2019-02-07T07:03:52.221Z,72.03
2019-02-07T07:04:52.207Z,72.03
2019-02-07T07:05:52.196Z,72.03
2019-02-07T07:06:52.160Z,72.03
2019-02-07T07:07:52.151Z,72.03
2019-02-07T07:08:52.120Z,72.03
2019-02-07T07:09:52.096Z,72.06
2019-02-07T07:10:52.079Z,72.34
2019-02-07T07:11:52.156Z,71.97
2019-02-07T07:12:52.048Z,71.88
2019-02-07T07:13:52.022Z,72.16
2019-02-07T07:14:51.998Z,71.84
2019-02-07T07:15:51.979Z,72.06
2019-02-07T07:16:51.968Z,72.16
2019-02-07T07:17:51.945Z,72.06
2019-02-07T07:18:51.919Z,72.06
2019-02-07T07:19:51.898Z,72.06
2019-02-07T07:20:51.888Z,72.25
2019-02-07T07:21:51.875Z,72.06
2019-02-07T07:22:51.848Z,72.25
2019-02-07T07:23:51.819Z,72.06
2019-02-07T07:24:51.807Z,72.34
2019-02-07T07:25:51.779Z,71.97
2019-02-07T07:26:51.763Z,72.06
2019-02-07T07:27:51.745Z,71.97
2019-02-07T07:28:51.722Z,72.06
2019-02-07T07:29:51.703Z,71.88
2019-02-07T07:30:51.681Z,72.06
2019-02-07T07:31:51.660Z,71.97
2019-02-07T07:32:51.643Z,72.06
2019-02-07T07:33:51.620Z,71.97
2019-02-07T07:34:51.601Z,71.97
2019-02-07T07:35:51.583Z,72.06
2019-02-07T07:36:51.569Z,71.88
2019-02-07T07:37:51.556Z,71.88
2019-02-07T07:38:51.526Z,71.78
2019-02-07T07:39:51.499Z,71.88
2019-02-07T07:40:51.490Z,71.88
2019-02-07T07:41:51.466Z,71.40
2019-02-07T07:42:51.447Z,71.78
2019-02-07T07:43:51.431Z,71.78
2019-02-07T07:44:51.403Z,71.69
2019-02-07T07:45:51.382Z,71.69
2019-02-07T07:46:51.366Z,71.88
2019-02-07T07:47:51.348Z,71.88
2019-02-07T07:48:51.428Z,71.78
2019-02-07T07:49:51.306Z,71.91
2019-02-07T07:50:51.288Z,71.88
2019-02-07T07:51:51.276Z,71.78
2019-02-07T07:52:51.248Z,71.88
2019-02-07T07:53:51.225Z,71.31
2019-02-07T07:54:51.200Z,71.78
2019-02-07T07:55:51.202Z,71.31
2019-02-07T07:56:51.200Z,71.59
2019-02-07T07:57:51.146Z,71.72
2019-02-07T07:58:51.123Z,71.53
2019-02-07T07:59:51.106Z,71.44
2019-02-07T08:00:51.088Z,71.06
2019-02-07T08:01:51.068Z,71.15
2019-02-07T08:02:51.056Z,71.15
2019-02-07T08:03:51.028Z,71.25
2019-02-07T08:04:51.026Z,71.34
2019-02-07T08:05:53.331Z,71.44
2019-02-07T08:06:50.967Z,71.15
2019-02-07T08:07:50.956Z,71.25
2019-02-07T08:08:50.927Z,71.53
2019-02-07T08:09:50.909Z,71.15
2019-02-07T08:10:50.887Z,71.25
2019-02-07T08:11:50.871Z,71.44
2019-02-07T08:12:50.853Z,71.25
2019-02-07T08:13:50.851Z,71.15
2019-02-07T08:14:50.811Z,71.25
2019-02-07T08:15:50.790Z,71.44
2019-02-07T08:16:50.785Z,71.34
2019-02-07T08:17:50.766Z,71.53
2019-02-07T08:18:50.744Z,71.53
2019-02-07T08:19:50.717Z,71.72
2019-02-07T08:20:50.697Z,71.44
2019-02-07T08:21:50.682Z,71.44
2019-02-07T08:22:50.671Z,71.53
2019-02-07T08:23:50.648Z,71.72
2019-02-07T08:24:50.618Z,71.62
2019-02-07T08:25:50.697Z,71.15
2019-02-07T08:26:50.581Z,71.81
2019-02-07T08:27:50.561Z,71.72
2019-02-07T08:28:50.548Z,71.53
2019-02-07T08:29:50.522Z,71.88
2019-02-07T08:30:50.512Z,72.06
2019-02-07T08:31:50.484Z,72.16
2019-02-07T08:32:50.463Z,72.57
2019-02-07T08:33:50.459Z,72.44
2019-02-07T08:34:50.439Z,72.06
2019-02-07T08:35:50.417Z,72.16
2019-02-07T08:36:50.386Z,72.63
2019-02-07T08:37:50.361Z,72.44
2019-02-07T08:38:50.344Z,72.63
2019-02-07T08:39:50.326Z,72.44
2019-02-07T08:40:50.304Z,72.73
2019-02-07T08:41:50.295Z,72.82
2019-02-07T08:42:50.263Z,72.73
2019-02-07T08:43:50.253Z,73.11
2019-02-07T08:44:50.222Z,73.30
2019-02-07T08:45:50.215Z,73.39
2019-02-07T08:46:50.210Z,73.11
2019-02-07T08:47:58.468Z,74.05
2019-02-07T08:48:50.158Z,73.77
2019-02-07T08:49:50.147Z,74.15
2019-02-07T08:50:50.105Z,73.96
2019-02-07T08:51:50.118Z,74.33
2019-02-07T08:52:50.078Z,74.05
2019-02-07T08:53:50.065Z,74.62
2019-02-07T08:54:50.028Z,73.96
2019-02-07T08:55:50.012Z,74.15
2019-02-07T08:56:49.992Z,74.05
2019-02-07T08:57:49.968Z,74.62
2019-02-07T08:58:49.952Z,74.81
2019-02-07T08:59:49.925Z,74.81
2019-02-07T09:00:49.913Z,74.71
2019-02-07T09:01:49.886Z,74.43
2019-02-07T09:02:51.882Z,75.38
2019-02-07T09:03:49.858Z,75.19
2019-02-07T09:04:49.843Z,75.19
2019-02-07T09:05:49.811Z,75.38
2019-02-07T09:06:49.787Z,75.57
2019-02-07T09:07:49.766Z,75.28
2019-02-07T09:08:49.755Z,75.38
2019-02-07T09:09:49.759Z,75.57
2019-02-07T09:10:49.723Z,75.66
2019-02-07T09:11:49.715Z,75.66
2019-02-07T09:12:49.696Z,75.66
2019-02-07T09:13:49.691Z,75.95
2019-02-07T09:14:49.653Z,76.04
2019-02-07T09:15:49.615Z,76.23
2019-02-07T09:16:49.590Z,75.95
2019-02-07T09:17:49.626Z,76.04
2019-02-07T09:18:49.563Z,76.51
2019-02-07T09:19:49.540Z,76.51
2019-02-07T09:20:49.512Z,76.89
2019-02-07T09:21:49.486Z,77.03
2019-02-07T09:22:49.486Z,76.99
2019-02-07T09:23:49.454Z,76.99
2019-02-07T09:24:49.458Z,76.65
2019-02-07T09:25:49.415Z,77.03
2019-02-07T09:26:49.390Z,77.03
2019-02-07T09:27:49.378Z,76.65
2019-02-07T09:28:49.348Z,76.93
2019-02-07T09:29:49.343Z,76.65
2019-02-07T09:30:49.315Z,77.40
2019-02-07T09:31:49.310Z,77.12
2019-02-07T09:32:49.275Z,77.12
2019-02-07T09:33:49.253Z,77.03
2019-02-07T09:34:49.244Z,76.93
2019-02-07T09:35:49.211Z,77.31
2019-02-07T09:36:49.220Z,77.12
2019-02-07T09:37:49.249Z,77.12
2019-02-07T09:38:49.152Z,77.03
2019-02-07T09:39:49.148Z,77.12
2019-02-07T09:40:49.120Z,77.12
2019-02-07T09:41:49.111Z,77.12
2019-02-07T09:42:49.080Z,77.12
2019-02-07T09:43:49.058Z,77.03
2019-02-07T09:44:49.044Z,77.31
2019-02-07T09:45:49.020Z,77.12
2019-02-07T09:46:49.019Z,76.93
2019-02-07T09:47:48.978Z,77.03
2019-02-07T09:48:48.958Z,77.12
2019-02-07T09:49:48.942Z,76.84
2019-02-07T09:50:48.928Z,77.22
2019-02-07T09:51:48.905Z,76.93
2019-02-07T09:52:48.885Z,76.84
2019-02-07T09:53:48.856Z,77.40
2019-02-07T09:54:48.851Z,77.12
2019-02-07T09:55:48.830Z,77.69
2019-02-07T09:56:48.929Z,77.59
2019-02-07T09:57:48.789Z,77.40
2019-02-07T09:58:48.758Z,77.40
2019-02-07T09:59:48.754Z,77.69
2019-02-07T10:00:48.732Z,77.97
2019-02-07T10:01:48.706Z,77.97
2019-02-07T10:02:48.681Z,78.26
2019-02-07T10:03:48.666Z,78.92
2019-02-07T10:04:48.656Z,78.92
2019-02-07T10:05:48.628Z,78.92
2019-02-07T10:06:48.619Z,79.11
2019-02-07T10:07:48.610Z,79.07
2019-02-07T10:08:48.564Z,78.92
2019-02-07T10:09:48.549Z,79.26
2019-02-07T10:10:48.525Z,79.83
2019-02-07T10:11:48.508Z,79.93
2019-02-07T10:12:48.498Z,80.02
2019-02-07T10:13:48.466Z,80.49
2019-02-07T10:14:48.467Z,80.87
2019-02-07T10:15:48.429Z,80.58
2019-02-07T10:16:48.411Z,80.49
2019-02-07T10:17:48.383Z,81.06
2019-02-07T10:18:48.375Z,81.15
2019-02-07T10:19:48.357Z,81.06
2019-02-07T10:20:48.326Z,81.44
2019-02-07T10:21:48.311Z,81.72
2019-02-07T10:22:48.298Z,81.53
2019-02-07T10:23:48.266Z,81.82
2019-02-07T10:24:48.244Z,81.92
2019-02-07T10:25:48.227Z,81.82
2019-02-07T10:26:48.228Z,82.48
2019-02-07T10:27:48.187Z,82.67
2019-02-07T10:28:48.163Z,82.39
2019-02-07T10:29:48.156Z,82.95
2019-02-07T10:30:48.142Z,82.67
2019-02-07T10:31:48.200Z,82.57
2019-02-07T10:32:48.087Z,82.95
2019-02-07T10:33:48.062Z,82.95
2019-02-07T10:34:48.046Z,82.67
2019-02-07T10:35:48.027Z,82.76
2019-02-07T10:36:48.004Z,82.86
2019-02-07T10:37:47.995Z,83.05
2019-02-07T10:38:47.994Z,83.71
2019-02-07T10:39:47.949Z,83.81
2019-02-07T10:40:47.937Z,83.52
2019-02-07T10:41:47.910Z,84.00
2019-02-07T10:42:47.886Z,83.81
2019-02-07T10:43:47.868Z,84.09
2019-02-07T10:44:47.852Z,84.09
2019-02-07T10:45:47.839Z,84.28
2019-02-07T10:46:47.810Z,84.09
2019-02-07T10:47:47.788Z,84.19
2019-02-07T10:48:47.775Z,84.19
2019-02-07T10:49:58.710Z,84.00
2019-02-07T10:50:47.737Z,84.85
2019-02-07T10:51:47.708Z,84.28
2019-02-07T10:52:47.695Z,84.32
2019-02-07T10:53:47.677Z,84.42
2019-02-07T10:54:47.655Z,84.61
2019-02-07T10:55:47.641Z,84.70
2019-02-07T10:56:47.607Z,84.51
2019-02-07T10:57:47.595Z,84.61
2019-02-07T10:58:47.570Z,84.89
2019-02-07T10:59:47.563Z,84.51
2019-02-07T11:00:47.550Z,84.61
2019-02-07T11:01:47.518Z,84.61
2019-02-07T11:02:47.489Z,84.51
2019-02-07T11:03:47.479Z,84.70
2019-02-07T11:04:47.462Z,84.61
2019-02-07T11:05:47.437Z,84.99
2019-02-07T11:06:47.411Z,84.80
2019-02-07T11:07:47.388Z,84.89
2019-02-07T11:08:47.372Z,84.89
2019-02-07T11:09:47.351Z,84.89
2019-02-07T11:10:47.342Z,85.17
2019-02-07T11:11:47.310Z,85.08
2019-02-07T11:12:47.295Z,85.27
2019-02-07T11:13:47.276Z,85.27
2019-02-07T11:14:47.266Z,84.89
2019-02-07T11:15:47.254Z,85.08
2019-02-07T11:16:47.219Z,85.36
2019-02-07T11:17:47.202Z,85.55
2019-02-07T11:18:55.272Z,85.65
2019-02-07T11:19:47.152Z,85.55
2019-02-07T11:20:47.145Z,85.46
2019-02-07T11:21:47.114Z,85.55
2019-02-07T11:22:47.098Z,85.74
2019-02-07T11:23:47.084Z,85.84
2019-02-07T11:24:47.071Z,85.84
2019-02-07T11:25:47.049Z,85.65
2019-02-07T11:26:47.018Z,85.74
2019-02-07T11:27:46.999Z,85.84
2019-02-07T11:28:46.983Z,86.03
2019-02-07T11:29:46.958Z,85.93
2019-02-07T11:30:46.941Z,85.89
2019-02-07T11:31:46.919Z,86.31
2019-02-07T11:32:46.900Z,86.31
2019-02-07T11:33:46.882Z,86.12
2019-02-07T11:34:46.863Z,86.12
2019-02-07T11:35:46.846Z,86.60
2019-02-07T11:36:53.825Z,86.60
2019-02-07T11:37:46.806Z,86.41
2019-02-07T11:38:46.781Z,86.88
2019-02-07T11:39:46.760Z,86.98
2019-02-07T11:40:46.750Z,87.07
2019-02-07T11:41:46.732Z,86.98
2019-02-07T11:42:46.713Z,86.88
2019-02-07T11:43:46.690Z,87.26
2019-02-07T11:44:46.670Z,87.16
2019-02-07T11:45:46.654Z,87.07
2019-02-07T11:46:48.781Z,87.64
2019-02-07T11:47:46.607Z,87.54
2019-02-07T11:48:46.598Z,87.83
2019-02-07T11:49:46.568Z,87.26
2019-02-07T11:50:46.571Z,87.64
2019-02-07T11:51:46.541Z,86.79
2019-02-07T11:52:46.545Z,87.07
2019-02-07T11:53:46.492Z,86.79
2019-02-07T11:54:46.495Z,87.64
2019-02-07T11:55:46.537Z,87.54
2019-02-07T11:56:46.484Z,87.77
2019-02-07T11:57:46.410Z,87.68
2019-02-07T11:58:48.150Z,87.21
2019-02-07T11:59:46.368Z,87.40
2019-02-07T12:00:46.454Z,87.49
2019-02-07T12:01:46.349Z,87.59
2019-02-07T12:02:46.403Z,87.59
2019-02-07T12:03:46.312Z,87.59
2019-02-07T12:04:46.299Z,87.40
2019-02-07T12:05:46.295Z,87.40
2019-02-07T12:06:46.285Z,87.68
2019-02-07T12:07:46.256Z,87.77
2019-02-07T12:08:46.196Z,87.87
2019-02-07T12:09:46.182Z,87.68
2019-02-07T12:10:47.761Z,87.87
2019-02-07T12:11:48.579Z,87.68
2019-02-07T12:12:46.122Z,87.77
2019-02-07T12:13:46.095Z,87.68
2019-02-07T12:14:46.083Z,87.68
2019-02-07T12:15:46.060Z,87.77
2019-02-07T12:16:46.044Z,87.68
2019-02-07T12:17:46.046Z,87.59
2019-02-07T12:18:46.013Z,87.59
2019-02-07T12:19:45.989Z,87.49
2019-02-07T12:20:45.974Z,87.49
2019-02-07T12:21:45.954Z,87.40
2019-02-07T12:22:45.938Z,87.59
2019-02-07T12:23:45.923Z,87.40
2019-02-07T12:24:45.889Z,87.40
2019-02-07T12:25:45.867Z,87.59
2019-02-07T12:26:45.846Z,87.49
2019-02-07T12:27:45.845Z,87.21
2019-02-07T12:28:45.838Z,87.59
2019-02-07T12:29:45.798Z,87.30
2019-02-07T12:30:45.775Z,87.40
2019-02-07T12:31:45.774Z,87.30
2019-02-07T12:32:45.736Z,87.59
2019-02-07T12:33:45.718Z,87.40
2019-02-07T12:34:45.706Z,87.49
2019-02-07T12:35:45.683Z,87.68
2019-02-07T12:36:45.662Z,87.77
2019-02-07T12:37:45.645Z,87.68
2019-02-07T12:38:45.620Z,87.49
2019-02-07T12:39:45.608Z,88.54
2019-02-07T12:40:45.579Z,88.16
2019-02-07T12:41:45.566Z,88.16
2019-02-07T12:42:45.544Z,88.16
2019-02-07T12:43:45.538Z,88.06
2019-02-07T12:44:45.508Z,87.87
2019-02-07T12:45:45.496Z,88.06
2019-02-07T12:46:45.476Z,88.06
2019-02-07T12:47:45.454Z,88.06
2019-02-07T12:48:45.433Z,88.54
2019-02-07T12:49:45.415Z,88.54
2019-02-07T12:50:45.404Z,88.63
2019-02-07T12:51:45.372Z,88.44